Time;durP1;ratioP1;P1;durP2;ratioP2;P2;SDS_P1;SDS_P2;PMS_P1;PMS_P2;Temp;Humidity;BMP_temperature;BMP_pressure;BME280_temperature;BME280_humidity;BME280_pressure;Samples;Min_cycle;Max_cycle;Signal;HPM_P1;HPM_P2
2023/04/21 00:02:16;;;;;;;45.08;29.67;;;;;;;;;;5073075;28;20021;-68
2023/04/21 00:04:44;;;;;;;43.50;31.02;;;;;;;;;;5073007;28;20025;-68
2023/04/21 00:07:13;;;;;;;45.78;28.77;;;;;;;;;;5073065;28;20097;-67
2023/04/21 00:09:40;;;;;;;36.58;24.88;;;;;;;;;;5072943;28;20047;-67
2023/04/21 00:12:07;;;;;;;40.70;26.83;;;;;;;;;;5072789;28;20501;-67
2023/04/21 00:14:33;;;;;;;35.25;25.70;;;;;;;;;;5092594;22;20056;-66
2023/04/21 00:17:00;;;;;;;31.98;24.27;;;;;;;;;;5073172;28;20064;-66
2023/04/21 00:19:28;;;;;;;37.10;26.05;;;;;;;;;;5072958;28;20088;-67
2023/04/21 00:21:57;;;;;;;34.83;25.58;;;;;;;;;;5073126;28;20024;-67
2023/04/21 00:24:24;;;;;;;39.53;28.27;;;;;;;;;;5072899;28;20538;-67
2023/04/21 00:26:51;;;;;;;32.35;26.67;;;;;;;;;;5072683;28;20036;-67
2023/04/21 00:29:18;;;;;;;31.52;25.00;;;;;;;;;;5072980;28;20017;-67
2023/04/21 00:31:44;;;;;;;36.22;25.95;;;;;;;;;;5072893;28;20025;-66
2023/04/21 00:34:11;;;;;;;31.13;23.73;;;;;;;;;;5072461;28;20048;-68
2023/04/21 00:36:37;;;;;;;25.65;21.13;;;;;;;;;;5072652;28;20032;-72
2023/04/21 00:39:04;;;;;;;31.75;23.98;;;;;;;;;;5072863;28;20028;-68
2023/04/21 00:41:31;;;;;;;30.23;21.67;;;;;;;;;;5072732;28;20073;-69
2023/04/21 00:44:11;;;;;;;30.52;24.13;;;;;;;;;;5072992;28;20028;-68
2023/04/21 00:46:38;;;;;;;40.17;26.35;;;;;;;;;;5072467;28;20367;-66
2023/04/21 00:49:05;;;;;;;34.88;26.98;;;;;;;;;;5073604;28;20024;-69
2023/04/21 00:51:33;;;;;;;41.28;29.48;;;;;;;;;;5076154;28;20052;-70
2023/04/21 00:54:00;;;;;;;53.50;41.03;;;;;;;;;;5076138;28;20112;-68
2023/04/21 00:56:28;;;;;;;46.55;34.50;;;;;;;;;;5076056;28;20036;-69
2023/04/21 00:58:54;;;;;;;53.95;43.08;;;;;;;;;;5076583;28;20056;-69
2023/04/21 01:01:21;;;;;;;58.08;47.08;;;;;;;;;;5076671;28;20052;-69
2023/04/21 01:03:49;;;;;;;42.20;34.25;;;;;;;;;;5076275;28;20031;-69
2023/04/21 01:06:15;;;;;;;47.78;36.25;;;;;;;;;;5076298;28;20017;-68
2023/04/21 01:08:42;;;;;;;77.60;50.10;;;;;;;;;;5076503;28;20024;-70
2023/04/21 01:11:10;;;;;;;65.65;45.03;;;;;;;;;;5075891;28;20025;-70
2023/04/21 01:13:36;;;;;;;45.92;34.20;;;;;;;;;;5066647;28;20025;-70
2023/04/21 01:16:03;;;;;;;47.47;29.13;;;;;;;;;;5061635;28;20037;-70
2023/04/21 01:18:30;;;;;;;45.85;31.33;;;;;;;;;;5075742;28;20504;-70
2023/04/21 01:20:57;;;;;;;37.58;25.98;;;;;;;;;;5075828;28;20035;-70
2023/04/21 01:23:24;;;;;;;36.38;23.05;;;;;;;;;;5075701;28;20044;-71
2023/04/21 01:25:51;;;;;;;30.23;23.27;;;;;;;;;;5075249;28;20029;-70
2023/04/21 01:28:26;;;;;;;32.22;22.60;;;;;;;;;;5075489;28;20492;-70
2023/04/21 01:30:53;;;;;;;38.22;27.65;;;;;;;;;;5075314;28;20025;-69
2023/04/21 01:33:20;;;;;;;34.38;27.48;;;;;;;;;;5075087;28;20413;-70
2023/04/21 01:35:47;;;;;;;33.97;26.15;;;;;;;;;;5075409;28;20027;-67
2023/04/21 01:38:17;;;;;;;33.10;23.75;;;;;;;;;;5069636;28;20537;-70
2023/04/21 01:40:45;;;;;;;33.75;26.67;;;;;;;;;;5055027;28;20091;-70
2023/04/21 01:43:12;;;;;;;29.48;23.40;;;;;;;;;;5055427;28;20055;-71
2023/04/21 01:45:39;;;;;;;38.92;27.60;;;;;;;;;;5055207;28;20584;-68
2023/04/21 01:48:05;;;;;;;34.65;27.92;;;;;;;;;;5054985;28;20036;-70
2023/04/21 01:50:32;;;;;;;46.00;29.58;;;;;;;;;;5055204;28;20057;-67
2023/04/21 01:52:59;;;;;;;32.92;24.10;;;;;;;;;;5055015;28;20028;-66
2023/04/21 01:55:25;;;;;;;36.40;25.63;;;;;;;;;;5055036;28;20082;-69
2023/04/21 01:57:52;;;;;;;39.47;26.15;;;;;;;;;;5055002;28;20039;-69
2023/04/21 02:00:19;;;;;;;53.47;27.65;;;;;;;;;;5054833;28;20109;-69
2023/04/21 02:02:45;;;;;;;49.60;28.15;;;;;;;;;;5054708;28;20107;-69
2023/04/21 02:05:12;;;;;;;34.05;25.52;;;;;;;;;;5064738;28;20162;-70
2023/04/21 02:07:39;;;;;;;32.58;26.05;;;;;;;;;;5055913;28;20382;-69
2023/04/21 02:10:05;;;;;;;35.95;27.10;;;;;;;;;;5054620;28;20049;-65
2023/04/21 02:12:32;;;;;;;40.05;29.70;;;;;;;;;;5054642;28;20029;-68
2023/04/21 02:14:59;;;;;;;35.35;28.75;;;;;;;;;;5054669;28;20037;-69
2023/04/21 02:17:25;;;;;;;40.85;30.73;;;;;;;;;;5054800;28;20118;-68
2023/04/21 02:19:52;;;;;;;48.53;34.15;;;;;;;;;;5054809;28;20025;-67
2023/04/21 02:22:18;;;;;;;47.30;36.63;;;;;;;;;;5054701;28;20296;-67
2023/04/21 02:24:45;;;;;;;50.65;37.42;;;;;;;;;;5054880;28;20021;-67
2023/04/21 02:27:12;;;;;;;41.25;34.50;;;;;;;;;;5055356;28;20017;-65
2023/04/21 02:29:38;;;;;;;40.33;31.05;;;;;;;;;;5055214;28;20052;-65
2023/04/21 02:32:05;;;;;;;33.00;24.92;;;;;;;;;;5055378;28;20446;-65
2023/04/21 02:34:31;;;;;;;39.13;26.42;;;;;;;;;;5055016;28;20041;-65
2023/04/21 02:36:58;;;;;;;46.72;33.60;;;;;;;;;;5054905;28;20025;-66
2023/04/21 02:39:25;;;;;;;51.05;36.03;;;;;;;;;;5054495;28;20025;-64
2023/04/21 02:41:52;;;;;;;42.10;29.20;;;;;;;;;;5054344;28;20039;-65
2023/04/21 02:44:18;;;;;;;49.70;26.17;;;;;;;;;;5054320;28;20484;-66
2023/04/21 02:46:45;;;;;;;109.78;30.90;;;;;;;;;;5054034;28;20114;-66
2023/04/21 02:49:12;;;;;;;276.75;43.83;;;;;;;;;;5053978;28;20492;-70
2023/04/21 02:51:39;;;;;;;81.90;28.83;;;;;;;;;;5053928;28;20033;-68
2023/04/21 02:54:06;;;;;;;58.70;31.60;;;;;;;;;;5053925;28;20490;-68
2023/04/21 02:56:33;;;;;;;54.83;35.22;;;;;;;;;;5053675;28;20025;-72
2023/04/21 02:59:00;;;;;;;74.85;52.05;;;;;;;;;;5053934;28;20021;-71
2023/04/21 03:01:26;;;;;;;57.45;38.47;;;;;;;;;;5054061;28;20095;-70
2023/04/21 03:03:53;;;;;;;162.07;81.95;;;;;;;;;;5053580;28;20470;-70
2023/04/21 03:06:19;;;;;;;53.05;32.78;;;;;;;;;;5053459;28;20105;-71
2023/04/21 03:08:46;;;;;;;42.42;27.80;;;;;;;;;;5053661;28;20488;-71
2023/04/21 03:11:13;;;;;;;47.65;33.22;;;;;;;;;;5053059;28;20029;-68
2023/04/21 03:13:39;;;;;;;62.75;41.38;;;;;;;;;;5053297;28;20036;-69
2023/04/21 03:16:06;;;;;;;54.00;39.22;;;;;;;;;;5053227;28;20037;-69
2023/04/21 03:18:35;;;;;;;369.98;64.80;;;;;;;;;;5053264;28;20021;-69
2023/04/21 03:21:01;;;;;;;259.25;59.25;;;;;;;;;;5053451;28;20066;-69
2023/04/21 03:23:28;;;;;;;96.50;62.47;;;;;;;;;;5053368;28;20473;-70
2023/04/21 03:25:54;;;;;;;112.47;62.90;;;;;;;;;;5053021;28;20040;-68
2023/04/21 03:28:21;;;;;;;100.75;71.07;;;;;;;;;;5053395;28;20373;-69
2023/04/21 03:30:48;;;;;;;105.88;71.78;;;;;;;;;;5053351;28;20030;-68
2023/04/21 03:33:14;;;;;;;93.25;61.38;;;;;;;;;;5053239;28;20020;-68
2023/04/21 03:35:41;;;;;;;93.72;58.53;;;;;;;;;;5052448;28;20354;-69
2023/04/21 03:38:08;;;;;;;73.60;51.00;;;;;;;;;;5052053;28;20470;-69
2023/04/21 03:40:34;;;;;;;54.25;44.28;;;;;;;;;;5053502;28;20033;-69
2023/04/21 03:43:01;;;;;;;73.45;60.05;;;;;;;;;;5053644;28;20512;-69
2023/04/21 03:45:28;;;;;;;75.95;60.30;;;;;;;;;;5068783;28;20409;-69
2023/04/21 03:47:55;;;;;;;63.70;48.50;;;;;;;;;;5053239;28;20055;-69
2023/04/21 03:50:22;;;;;;;66.18;48.67;;;;;;;;;;5053768;28;20056;-69
2023/04/21 03:52:49;;;;;;;80.18;53.95;;;;;;;;;;5054086;28;20028;-70
2023/04/21 03:55:15;;;;;;;92.25;55.80;;;;;;;;;;5053621;28;20021;-70
2023/04/21 03:57:42;;;;;;;106.32;55.38;;;;;;;;;;5053478;28;20106;-70
2023/04/21 04:00:09;;;;;;;161.25;70.93;;;;;;;;;;5053045;28;20029;-70
2023/04/21 04:02:36;;;;;;;156.90;81.22;;;;;;;;;;5060105;28;20028;-70
2023/04/21 04:05:04;;;;;;;124.07;68.90;;;;;;;;;;5072902;28;20362;-70
2023/04/21 04:07:32;;;;;;;118.38;72.07;;;;;;;;;;5073174;28;20028;-69
2023/04/21 04:09:58;;;;;;;129.30;80.70;;;;;;;;;;5072796;28;20078;-70
2023/04/21 04:12:25;;;;;;;126.28;82.55;;;;;;;;;;5073010;28;20013;-69
2023/04/21 04:14:52;;;;;;;135.25;84.35;;;;;;;;;;5072775;28;20104;-70
2023/04/21 04:17:18;;;;;;;132.65;82.43;;;;;;;;;;5072676;28;20171;-69
2023/04/21 04:19:45;;;;;;;203.27;136.45;;;;;;;;;;5072869;28;20024;-69
2023/04/21 04:22:12;;;;;;;123.20;81.22;;;;;;;;;;5073057;28;20016;-71
2023/04/21 04:24:38;;;;;;;268.90;189.40;;;;;;;;;;5068377;28;20389;-71
2023/04/21 04:27:05;;;;;;;93.15;66.88;;;;;;;;;;5072719;28;20036;-69
2023/04/21 04:29:32;;;;;;;90.13;65.47;;;;;;;;;;5068291;28;20048;-69
2023/04/21 04:32:00;;;;;;;84.72;60.22;;;;;;;;;;5061679;28;20063;-69
2023/04/21 04:34:27;;;;;;;72.00;52.90;;;;;;;;;;5056670;28;20091;-70
2023/04/21 04:36:56;;;;;;;63.85;45.97;;;;;;;;;;5056617;28;20021;-69
2023/04/21 04:39:24;;;;;;;59.80;46.65;;;;;;;;;;5056249;28;20473;-69
2023/04/21 04:41:51;;;;;;;74.57;52.00;;;;;;;;;;5056364;28;20381;-69
2023/04/21 04:44:18;;;;;;;66.07;50.85;;;;;;;;;;5056720;28;20021;-68
2023/04/21 04:46:44;;;;;;;72.10;52.05;;;;;;;;;;5056288;28;20029;-69
2023/04/21 04:49:11;;;;;;;75.50;54.55;;;;;;;;;;5056149;28;20551;-68
2023/04/21 04:51:38;;;;;;;70.32;48.60;;;;;;;;;;5056176;28;20108;-69
2023/04/21 04:54:04;;;;;;;68.72;52.00;;;;;;;;;;5055968;28;20074;-68
2023/04/21 04:56:31;;;;;;;117.07;89.13;;;;;;;;;;5056004;28;20421;-67
2023/04/21 04:58:58;;;;;;;80.38;57.88;;;;;;;;;;5071349;28;20025;-67
2023/04/21 05:01:29;;;;;;;88.72;69.93;;;;;;;;;;5056011;28;20055;-68
2023/04/21 05:03:55;;;;;;;75.80;54.08;;;;;;;;;;5055934;28;20033;-67
2023/04/21 05:06:22;;;;;;;64.30;48.83;;;;;;;;;;5055629;28;20021;-67
2023/04/21 05:08:49;;;;;;;63.78;46.55;;;;;;;;;;5055855;28;20374;-68
2023/04/21 05:11:15;;;;;;;59.28;40.22;;;;;;;;;;5055639;28;20096;-69
2023/04/21 05:13:42;;;;;;;53.47;37.90;;;;;;;;;;5055702;28;20025;-69
2023/04/21 05:16:09;;;;;;;44.03;34.40;;;;;;;;;;5055406;28;20577;-68
2023/04/21 05:18:35;;;;;;;38.35;30.73;;;;;;;;;;5055423;28;20036;-68
2023/04/21 05:21:02;;;;;;;42.65;32.22;;;;;;;;;;5055587;28;20048;-68
2023/04/21 05:23:29;;;;;;;41.25;30.23;;;;;;;;;;5055558;28;20481;-69
2023/04/21 05:25:55;;;;;;;57.35;41.25;;;;;;;;;;5055231;28;20388;-69
2023/04/21 05:28:22;;;;;;;65.10;43.08;;;;;;;;;;5055449;28;20016;-68
2023/04/21 05:30:49;;;;;;;65.40;42.95;;;;;;;;;;5055187;28;20056;-68
2023/04/21 05:33:18;;;;;;;69.90;45.15;;;;;;;;;;5067981;28;20047;-69
2023/04/21 05:35:45;;;;;;;81.03;49.60;;;;;;;;;;5060866;28;20025;-67
2023/04/21 05:38:11;;;;;;;77.82;48.00;;;;;;;;;;5055636;28;20032;-68
2023/04/21 05:40:38;;;;;;;64.07;42.80;;;;;;;;;;5066171;28;20107;-68
2023/04/21 05:43:05;;;;;;;42.30;29.17;;;;;;;;;;5075053;28;20033;-67
2023/04/21 05:45:31;;;;;;;27.88;22.17;;;;;;;;;;5075224;28;20024;-71
2023/04/21 05:47:58;;;;;;;27.02;21.25;;;;;;;;;;5075328;28;20020;-67
2023/04/21 05:50:27;;;;;;;25.55;21.17;;;;;;;;;;5073507;28;20021;-68
2023/04/21 05:52:53;;;;;;;28.52;20.98;;;;;;;;;;5069084;28;20017;-68
2023/04/21 05:55:20;;;;;;;31.42;22.17;;;;;;;;;;5066525;28;20115;-68
2023/04/21 05:57:47;;;;;;;27.48;21.00;;;;;;;;;;5064152;28;20043;-67
2023/04/21 06:00:14;;;;;;;23.60;20.45;;;;;;;;;;5064728;28;20358;-69
2023/04/21 06:02:41;;;;;;;23.55;18.55;;;;;;;;;;5069459;28;20477;-67
2023/04/21 06:05:08;;;;;;;22.15;18.90;;;;;;;;;;5064182;28;20094;-69
2023/04/21 06:07:36;;;;;;;25.35;19.58;;;;;;;;;;5063806;28;20048;-68
2023/04/21 06:10:03;;;;;;;22.55;18.77;;;;;;;;;;5060316;28;20059;-67
2023/04/21 06:12:30;;;;;;;18.88;16.40;;;;;;;;;;5064900;28;20029;-67
2023/04/21 06:14:56;;;;;;;34.47;21.48;;;;;;;;;;5064638;28;20033;-67
2023/04/21 06:17:23;;;;;;;27.40;21.25;;;;;;;;;;5061278;28;20159;-68
2023/04/21 06:19:52;;;;;;;27.48;21.17;;;;;;;;;;5064494;28;20039;-69
2023/04/21 06:22:19;;;;;;;24.38;19.25;;;;;;;;;;5064401;28;20043;-68
2023/04/21 06:24:46;;;;;;;31.50;21.30;;;;;;;;;;5061683;28;20051;-67
2023/04/21 06:27:13;;;;;;;29.77;20.80;;;;;;;;;;5066550;28;20089;-68
2023/04/21 06:29:41;;;;;;;32.50;22.00;;;;;;;;;;5065915;28;20029;-70
2023/04/21 06:32:08;;;;;;;27.40;19.80;;;;;;;;;;5063399;28;20020;-68
2023/04/21 06:34:34;;;;;;;31.67;22.48;;;;;;;;;;5062758;28;20031;-69
2023/04/21 06:37:01;;;;;;;27.95;22.70;;;;;;;;;;5065309;28;20070;-71
2023/04/21 06:39:28;;;;;;;41.95;27.08;;;;;;;;;;5063268;28;20017;-68
2023/04/21 06:41:56;;;;;;;39.30;25.73;;;;;;;;;;5065205;28;20055;-70
2023/04/21 06:44:23;;;;;;;39.03;27.58;;;;;;;;;;5064873;28;20025;-71
2023/04/21 06:46:50;;;;;;;42.92;29.15;;;;;;;;;;5062763;28;20028;-72
2023/04/21 06:49:16;;;;;;;42.38;31.15;;;;;;;;;;5058541;28;20100;-71
2023/04/21 06:51:43;;;;;;;53.08;34.90;;;;;;;;;;5060577;28;20150;-72
2023/04/21 06:54:10;;;;;;;46.10;33.22;;;;;;;;;;5061813;28;20024;-73
2023/04/21 06:56:37;;;;;;;43.67;33.40;;;;;;;;;;5065388;28;20032;-70
2023/04/21 06:59:03;;;;;;;61.83;40.00;;;;;;;;;;5064944;28;20025;-70
2023/04/21 07:01:30;;;;;;;66.07;42.13;;;;;;;;;;5062742;28;20545;-70
2023/04/21 07:03:56;;;;;;;57.58;41.30;;;;;;;;;;5064194;28;20032;-70
2023/04/21 07:06:23;;;;;;;59.25;40.63;;;;;;;;;;5061710;28;20039;-70
2023/04/21 07:08:50;;;;;;;41.42;32.33;;;;;;;;;;5064393;28;20487;-71
2023/04/21 07:11:16;;;;;;;43.95;27.92;;;;;;;;;;5063195;28;20029;-71
2023/04/21 07:13:43;;;;;;;40.05;28.45;;;;;;;;;;5062643;28;20012;-69
2023/04/21 07:16:10;;;;;;;40.60;32.00;;;;;;;;;;5064873;28;20044;-68
2023/04/21 07:18:36;;;;;;;36.95;28.23;;;;;;;;;;5064923;28;20031;-70
2023/04/21 07:21:03;;;;;;;41.13;30.45;;;;;;;;;;5065355;28;20105;-68
2023/04/21 07:23:30;;;;;;;48.17;35.88;;;;;;;;;;5064016;28;20021;-70
2023/04/21 07:25:56;;;;;;;67.22;54.58;;;;;;;;;;5065677;28;20086;-69
2023/04/21 07:28:23;;;;;;;413.42;288.65;;;;;;;;;;5061675;28;25122;-73
2023/04/21 07:30:49;;;;;;;398.50;252.52;;;;;;;;;;5064032;28;20024;-67
2023/04/21 07:33:16;;;;;;;68.80;49.87;;;;;;;;;;5060972;28;20386;-70
2023/04/21 07:35:43;;;;;;;62.90;46.33;;;;;;;;;;5062234;28;20024;-69
2023/04/21 07:38:09;;;;;;;368.70;252.10;;;;;;;;;;5060462;28;20823;-73
2023/04/21 07:40:37;;;;;;;652.35;491.88;;;;;;;;;;5063005;28;20384;-70
2023/04/21 07:43:03;;;;;;;254.90;166.68;;;;;;;;;;5066647;28;20380;-72
2023/04/21 07:45:31;;;;;;;499.70;376.90;;;;;;;;;;5065447;28;20481;-71
2023/04/21 07:47:58;;;;;;;55.92;42.28;;;;;;;;;;5063077;28;20075;-71
2023/04/21 07:50:24;;;;;;;67.28;44.65;;;;;;;;;;5062484;28;20106;-68
2023/04/21 07:52:51;;;;;;;83.50;55.35;;;;;;;;;;5062542;28;20071;-71
2023/04/21 07:55:18;;;;;;;87.57;57.70;;;;;;;;;;5063227;28;20017;-71
2023/04/21 07:57:44;;;;;;;61.15;39.97;;;;;;;;;;5062413;28;20032;-72
2023/04/21 08:00:11;;;;;;;49.60;33.33;;;;;;;;;;5066848;28;20028;-73
2023/04/21 08:02:38;;;;;;;44.08;32.42;;;;;;;;;;5067921;28;20028;-69
2023/04/21 08:05:05;;;;;;;45.20;33.22;;;;;;;;;;5066759;28;20020;-70
2023/04/21 08:07:31;;;;;;;44.05;33.80;;;;;;;;;;5066316;28;20025;-70
2023/04/21 08:09:59;;;;;;;47.00;32.45;;;;;;;;;;5066960;28;20036;-71
2023/04/21 08:12:26;;;;;;;46.65;31.98;;;;;;;;;;5064814;28;20013;-69
2023/04/21 08:14:52;;;;;;;28.58;24.92;;;;;;;;;;5067803;28;20047;-71
2023/04/21 08:17:19;;;;;;;32.63;26.65;;;;;;;;;;5068375;28;20013;-71
2023/04/21 08:19:46;;;;;;;32.03;25.80;;;;;;;;;;5070676;28;20103;-72
2023/04/21 08:22:12;;;;;;;38.55;29.92;;;;;;;;;;5068943;28;20020;-71
2023/04/21 08:24:39;;;;;;;31.52;26.63;;;;;;;;;;5076784;28;20025;-66
2023/04/21 08:27:05;;;;;;;30.65;26.05;;;;;;;;;;5072878;28;20130;-67
2023/04/21 08:29:33;;;;;;;32.63;26.23;;;;;;;;;;5070179;28;20489;-67
2023/04/21 08:31:59;;;;;;;33.78;29.63;;;;;;;;;;5067666;28;20079;-67
2023/04/21 08:34:26;;;;;;;26.33;22.05;;;;;;;;;;5068044;28;20025;-66
2023/04/21 08:36:52;;;;;;;30.95;25.42;;;;;;;;;;5068762;28;20021;-66
2023/04/21 08:39:19;;;;;;;32.10;25.45;;;;;;;;;;5065791;28;20025;-67
2023/04/21 08:41:47;;;;;;;32.03;25.77;;;;;;;;;;5067618;28;20506;-67
2023/04/21 08:44:14;;;;;;;27.63;24.63;;;;;;;;;;5065446;28;20028;-66
2023/04/21 08:46:41;;;;;;;107.25;83.18;;;;;;;;;;5066448;28;20071;-66
2023/04/21 08:49:10;;;;;;;42.38;32.22;;;;;;;;;;5069905;28;20477;-67
2023/04/21 08:51:36;;;;;;;27.27;23.10;;;;;;;;;;5069167;28;20008;-66
2023/04/21 08:54:03;;;;;;;35.53;29.15;;;;;;;;;;5066415;28;20381;-65
2023/04/21 08:56:29;;;;;;;39.72;28.50;;;;;;;;;;5069048;28;20040;-66
2023/04/21 08:58:56;;;;;;;24.33;19.60;;;;;;;;;;5064756;28;20044;-67
2023/04/21 09:01:23;;;;;;;21.23;17.05;;;;;;;;;;5065997;28;20035;-66
2023/04/21 09:03:49;;;;;;;22.77;18.98;;;;;;;;;;5066298;28;20028;-66
2023/04/21 09:06:16;;;;;;;18.80;16.25;;;;;;;;;;5065632;28;20025;-66
2023/04/21 09:08:43;;;;;;;20.45;15.48;;;;;;;;;;5065651;28;20033;-67
2023/04/21 09:11:13;;;;;;;17.40;15.15;;;;;;;;;;5068671;28;20040;-66
2023/04/21 09:13:40;;;;;;;23.35;16.17;;;;;;;;;;5065052;28;20017;-67
2023/04/21 09:16:16;;;;;;;37.25;24.92;;;;;;;;;;5065579;28;20119;-66
2023/04/21 09:18:43;;;;;;;42.42;29.15;;;;;;;;;;5068381;28;20038;-65
2023/04/21 09:21:10;;;;;;;33.88;25.27;;;;;;;;;;5070892;28;20024;-66
2023/04/21 09:23:51;;;;;;;29.10;23.73;;;;;;;;;;5065853;28;20032;-67
2023/04/21 09:26:21;;;;;;;22.92;19.25;;;;;;;;;;5063196;28;20090;-68
2023/04/21 09:28:48;;;;;;;19.58;16.48;;;;;;;;;;5067448;28;20070;-66
2023/04/21 09:31:15;;;;;;;25.48;16.95;;;;;;;;;;5063754;28;20624;-67
2023/04/21 09:33:46;;;;;;;22.90;17.83;;;;;;;;;;5065313;28;20040;-68
2023/04/21 09:36:23;;;;;;;23.23;17.90;;;;;;;;;;5069040;28;20021;-68
2023/04/21 09:38:57;;;;;;;21.35;18.65;;;;;;;;;;5075294;28;20028;-67
2023/04/21 09:41:24;;;;;;;23.33;19.33;;;;;;;;;;5072597;28;20033;-68
2023/04/21 09:43:51;;;;;;;33.38;23.40;;;;;;;;;;5069515;28;20024;-67
2023/04/21 09:46:18;;;;;;;46.72;37.03;;;;;;;;;;5075225;28;20032;-67
2023/04/21 09:48:45;;;;;;;49.80;40.35;;;;;;;;;;5072790;28;20009;-68
2023/04/21 09:51:13;;;;;;;27.15;23.35;;;;;;;;;;5073361;28;20040;-67
2023/04/21 09:53:41;;;;;;;57.78;48.40;;;;;;;;;;5075319;28;20035;-67
2023/04/21 09:56:17;;;;;;;28.25;19.45;;;;;;;;;;5064368;28;20032;-67
2023/04/21 09:59:01;;;;;;;22.55;18.38;;;;;;;;;;5065241;28;20025;-67
2023/04/21 10:01:29;;;;;;;68.25;52.15;;;;;;;;;;5070735;28;20439;-66
2023/04/21 10:03:56;;;;;;;64.30;49.67;;;;;;;;;;5071631;28;20528;-67
2023/04/21 10:06:23;;;;;;;51.97;40.78;;;;;;;;;;5064059;28;20086;-67
2023/04/21 10:08:50;;;;;;;60.17;45.80;;;;;;;;;;5065435;28;20028;-68
2023/04/21 10:11:17;;;;;;;47.05;34.58;;;;;;;;;;5065416;28;20028;-67
2023/04/21 10:13:45;;;;;;;28.73;21.25;;;;;;;;;;5060108;28;20576;-67
2023/04/21 10:16:12;;;;;;;22.85;17.02;;;;;;;;;;5065371;28;20417;-67
2023/04/21 10:18:43;;;;;;;25.00;16.50;;;;;;;;;;5065429;28;20017;-67
2023/04/21 10:21:11;;;;;;;24.40;17.70;;;;;;;;;;5068055;28;20035;-68
2023/04/21 10:23:41;;;;;;;28.58;18.60;;;;;;;;;;5067528;28;20090;-67
2023/04/21 10:26:10;;;;;;;24.88;17.88;;;;;;;;;;5063791;28;20043;-69
2023/04/21 10:28:53;;;;;;;24.35;17.13;;;;;;;;;;5060334;28;20547;-65
2023/04/21 10:31:20;;;;;;;23.30;16.50;;;;;;;;;;5074276;28;20088;-67
2023/04/21 10:34:06;;;;;;;23.80;15.82;;;;;;;;;;5072659;28;20091;-67
2023/04/21 10:36:34;;;;;;;27.50;18.25;;;;;;;;;;5068269;28;20040;-69
2023/04/21 10:39:03;;;;;;;24.65;17.73;;;;;;;;;;5070507;28;20036;-66
2023/04/21 10:41:30;;;;;;;29.52;21.52;;;;;;;;;;5072399;28;20029;-66
2023/04/21 10:44:17;;;;;;;38.42;25.20;;;;;;;;;;5072727;28;20041;-69
2023/04/21 10:46:47;;;;;;;29.65;18.27;;;;;;;;;;5073022;28;20452;-69
2023/04/21 10:49:22;;;;;;;24.45;16.92;;;;;;;;;;5073879;28;20016;-68
2023/04/21 10:51:59;;;;;;;24.13;15.82;;;;;;;;;;5073609;28;20385;-71
2023/04/21 10:54:28;;;;;;;22.30;16.58;;;;;;;;;;5071429;28;20025;-69
2023/04/21 10:56:55;;;;;;;28.95;16.35;;;;;;;;;;5072403;28;20469;-70
2023/04/21 10:59:22;;;;;;;26.73;16.63;;;;;;;;;;5068495;28;20024;-69
2023/04/21 11:01:48;;;;;;;29.00;17.90;;;;;;;;;;5073329;28;20028;-74
2023/04/21 11:04:16;;;;;;;24.38;17.08;;;;;;;;;;5073726;28;20024;-71
2023/04/21 11:06:44;;;;;;;27.00;17.65;;;;;;;;;;5071721;28;20031;-71
2023/04/21 11:09:10;;;;;;;23.02;16.45;;;;;;;;;;5059172;28;20511;-71
2023/04/21 11:11:37;;;;;;;26.98;17.80;;;;;;;;;;5069981;28;20032;-73
2023/04/21 11:14:03;;;;;;;23.63;17.67;;;;;;;;;;5068409;28;20059;-70
2023/04/21 11:16:30;;;;;;;26.60;19.35;;;;;;;;;;5068888;28;20048;-70
2023/04/21 11:18:57;;;;;;;28.23;18.48;;;;;;;;;;5071803;28;20067;-69
2023/04/21 11:21:24;;;;;;;71.82;49.00;;;;;;;;;;5066462;28;20031;-68
2023/04/21 11:23:52;;;;;;;24.92;16.70;;;;;;;;;;5070106;28;20032;-70
2023/04/21 11:26:19;;;;;;;31.80;21.08;;;;;;;;;;5071065;28;20029;-67
2023/04/21 11:28:48;;;;;;;25.23;19.67;;;;;;;;;;5073760;28;20020;-69
2023/04/21 11:31:15;;;;;;;47.70;36.53;;;;;;;;;;5073590;28;20131;-69
2023/04/21 11:33:42;;;;;;;28.80;20.58;;;;;;;;;;5071734;28;20027;-71
2023/04/21 11:36:09;;;;;;;42.92;31.25;;;;;;;;;;5073314;28;20024;-70
2023/04/21 11:38:37;;;;;;;72.70;53.15;;;;;;;;;;5066886;28;20060;-70
2023/04/21 11:41:04;;;;;;;42.03;30.17;;;;;;;;;;5072832;28;20033;-74
2023/04/21 11:43:31;;;;;;;49.17;35.70;;;;;;;;;;5073393;28;20469;-73
2023/04/21 11:46:18;;;;;;;36.85;24.73;;;;;;;;;;5068041;28;20036;-71
2023/04/21 11:48:45;;;;;;;32.88;22.52;;;;;;;;;;5068387;28;20029;-71
2023/04/21 11:51:15;;;;;;;34.03;21.27;;;;;;;;;;5066299;28;20027;-71
2023/04/21 11:53:41;;;;;;;38.35;19.83;;;;;;;;;;5065379;28;20027;-71
2023/04/21 11:56:10;;;;;;;23.52;18.98;;;;;;;;;;5062546;28;20051;-74
2023/04/21 11:58:38;;;;;;;33.00;20.40;;;;;;;;;;5057617;28;20037;-72
2023/04/21 12:01:08;;;;;;;28.85;19.05;;;;;;;;;;5058271;28;20039;-71
2023/04/21 12:03:34;;;;;;;157.93;111.10;;;;;;;;;;5065500;28;20107;-71
2023/04/21 12:06:01;;;;;;;66.28;46.47;;;;;;;;;;5062754;28;20270;-71
2023/04/21 12:08:35;;;;;;;53.53;37.22;;;;;;;;;;5053359;28;20021;-70
2023/04/21 12:11:02;;;;;;;47.97;36.38;;;;;;;;;;5069439;28;20059;-71
2023/04/21 12:13:30;;;;;;;39.10;22.85;;;;;;;;;;5072242;28;20021;-74
2023/04/21 12:15:56;;;;;;;54.25;32.00;;;;;;;;;;5072413;28;20072;-72
2023/04/21 12:18:27;;;;;;;48.53;32.80;;;;;;;;;;5072938;28;20492;-69
2023/04/21 12:20:53;;;;;;;50.45;34.03;;;;;;;;;;5072291;28;20107;-68
2023/04/21 12:23:20;;;;;;;42.70;28.33;;;;;;;;;;5072172;28;20209;-70
2023/04/21 12:25:47;;;;;;;31.92;21.95;;;;;;;;;;5069214;28;20033;-70
2023/04/21 12:28:16;;;;;;;31.45;24.20;;;;;;;;;;5063997;28;20532;-73
2023/04/21 12:30:43;;;;;;;56.92;37.00;;;;;;;;;;5072881;28;20023;-73
2023/04/21 12:33:11;;;;;;;71.55;43.28;;;;;;;;;;5072227;28;20017;-68
2023/04/21 12:35:37;;;;;;;50.13;35.10;;;;;;;;;;5067197;28;20085;-67
2023/04/21 12:38:04;;;;;;;97.90;61.70;;;;;;;;;;5067039;28;20107;-65
2023/04/21 12:40:32;;;;;;;80.25;50.40;;;;;;;;;;5071787;28;20043;-67
2023/04/21 12:42:59;;;;;;;66.15;42.75;;;;;;;;;;5069762;28;20070;-65
2023/04/21 12:45:26;;;;;;;64.72;39.25;;;;;;;;;;5065444;28;20056;-65
2023/04/21 12:47:53;;;;;;;93.03;61.33;;;;;;;;;;5076203;28;20021;-65
2023/04/21 12:50:20;;;;;;;109.35;55.65;;;;;;;;;;5076263;28;20103;-67
2023/04/21 12:52:48;;;;;;;83.55;56.13;;;;;;;;;;5075569;28;20031;-66
2023/04/21 12:55:15;;;;;;;78.95;53.05;;;;;;;;;;5069261;28;20070;-73
2023/04/21 12:57:42;;;;;;;59.20;40.15;;;;;;;;;;5071596;28;20033;-66
2023/04/21 13:00:11;;;;;;;55.50;36.63;;;;;;;;;;5063402;28;20021;-67
2023/04/21 13:02:38;;;;;;;54.63;36.45;;;;;;;;;;5073978;28;20111;-66
2023/04/21 13:05:05;;;;;;;66.00;34.83;;;;;;;;;;5074276;28;20019;-71
2023/04/21 13:07:34;;;;;;;75.53;35.35;;;;;;;;;;5067370;28;20201;-68
2023/04/21 13:10:01;;;;;;;58.85;33.45;;;;;;;;;;5069568;28;20043;-66
2023/04/21 13:12:28;;;;;;;48.15;29.25;;;;;;;;;;5082267;28;20369;-66
2023/04/21 13:14:55;;;;;;;49.67;30.23;;;;;;;;;;5076800;28;20080;-67
2023/04/21 13:17:21;;;;;;;53.70;38.15;;;;;;;;;;5075802;28;20040;-67
2023/04/21 13:19:48;;;;;;;71.03;46.95;;;;;;;;;;5075145;28;20389;-66
2023/04/21 13:22:15;;;;;;;89.93;54.25;;;;;;;;;;5074131;28;20052;-66
2023/04/21 13:24:42;;;;;;;79.32;51.67;;;;;;;;;;5074804;28;20477;-65
2023/04/21 13:27:09;;;;;;;73.63;42.85;;;;;;;;;;5072869;28;20036;-70
2023/04/21 13:29:35;;;;;;;89.53;56.92;;;;;;;;;;5070168;28;20104;-67
2023/04/21 13:32:04;;;;;;;71.03;40.40;;;;;;;;;;5065126;28;20425;-74
2023/04/21 13:34:31;;;;;;;61.15;35.83;;;;;;;;;;5055280;28;20048;-73
2023/04/21 13:36:58;;;;;;;52.70;31.77;;;;;;;;;;5054155;28;20359;-74
2023/04/21 13:39:25;;;;;;;53.25;28.20;;;;;;;;;;5055163;28;20529;-73
2023/04/21 13:41:51;;;;;;;36.90;24.90;;;;;;;;;;5055272;28;20477;-74
2023/04/21 13:44:20;;;;;;;45.55;26.50;;;;;;;;;;5055310;28;20037;-69
2023/04/21 13:46:47;;;;;;;43.47;28.48;;;;;;;;;;5055029;28;20087;-68
2023/04/21 13:49:13;;;;;;;54.75;35.42;;;;;;;;;;5055251;28;20021;-73
2023/04/21 13:51:40;;;;;;;62.70;41.08;;;;;;;;;;5055161;28;20100;-76
2023/04/21 13:54:07;;;;;;;60.75;36.35;;;;;;;;;;5055004;28;20109;-74
2023/04/21 13:56:34;;;;;;;51.92;32.95;;;;;;;;;;5054989;28;20021;-74
2023/04/21 13:59:00;;;;;;;114.82;80.13;;;;;;;;;;5055082;28;20028;-76
2023/04/21 14:01:27;;;;;;;80.03;54.70;;;;;;;;;;5055048;28;20104;-76
2023/04/21 14:03:55;;;;;;;108.22;67.60;;;;;;;;;;5055118;28;20025;-77
2023/04/21 14:06:22;;;;;;;62.47;42.20;;;;;;;;;;5054967;28;20064;-77
2023/04/21 14:08:48;;;;;;;74.20;53.03;;;;;;;;;;5054720;28;20071;-76
2023/04/21 14:11:15;;;;;;;67.70;40.47;;;;;;;;;;5055157;28;20025;-76
2023/04/21 14:13:42;;;;;;;67.63;38.78;;;;;;;;;;5054893;28;20036;-73
2023/04/21 14:16:08;;;;;;;130.45;87.97;;;;;;;;;;5054462;28;20512;-73
2023/04/21 14:18:37;;;;;;;97.43;66.78;;;;;;;;;;5054651;28;20436;-74